sensor_id;sensor_type;location;lat;lon;timestamp;temperature;humidity
47022;DHT22;32779;52.264;6.154;2023-11-21T00:00:49;7.00;99.90
47022;DHT22;32779;52.264;6.154;2023-11-21T00:03:14;7.10;99.90
47022;DHT22;32779;52.264;6.154;2023-11-21T00:05:41;7.10;99.90
47022;DHT22;32779;52.264;6.154;2023-11-21T00:08:07;7.10;99.90
47022;DHT22;32779;52.264;6.154;2023-11-21T00:10:32;7.00;99.90
47022;DHT22;32779;52.264;6.154;2023-11-21T00:12:58;7.10;99.90
47022;DHT22;32779;52.264;6.154;2023-11-21T00:15:24;7.10;99.90
47022;DHT22;32779;52.264;6.154;2023-11-21T00:17:50;7.00;99.90
47022;DHT22;32779;52.264;6.154;2023-11-21T00:20:15;7.00;99.90
47022;DHT22;32779;52.264;6.154;2023-11-21T00:22:41;7.00;99.90
47022;DHT22;32779;52.264;6.154;2023-11-21T00:25:07;7.00;99.90
47022;DHT22;32779;52.264;6.154;2023-11-21T00:27:35;7.00;99.90
47022;DHT22;32779;52.264;6.154;2023-11-21T00:30:01;7.00;99.90
47022;DHT22;32779;52.264;6.154;2023-11-21T00:32:27;7.00;99.90
47022;DHT22;32779;52.264;6.154;2023-11-21T00:34:53;6.90;99.90
47022;DHT22;32779;52.264;6.154;2023-11-21T00:37:19;6.90;99.90
47022;DHT22;32779;52.264;6.154;2023-11-21T00:39:45;7.00;99.90
47022;DHT22;32779;52.264;6.154;2023-11-21T00:42:11;6.90;99.90
47022;DHT22;32779;52.264;6.154;2023-11-21T00:44:38;6.90;99.90
47022;DHT22;32779;52.264;6.154;2023-11-21T00:47:05;6.90;99.90
47022;DHT22;32779;52.264;6.154;2023-11-21T00:49:30;6.90;99.90
47022;DHT22;32779;52.264;6.154;2023-11-21T00:51:56;6.90;99.90
47022;DHT22;32779;52.264;6.154;2023-11-21T00:54:23;6.90;99.90
47022;DHT22;32779;52.264;6.154;2023-11-21T00:56:49;6.90;99.90
47022;DHT22;32779;52.264;6.154;2023-11-21T00:59:14;6.90;99.90
47022;DHT22;32779;52.264;6.154;2023-11-21T01:01:40;6.90;99.90
47022;DHT22;32779;52.264;6.154;2023-11-21T01:04:06;6.90;99.90
47022;DHT22;32779;52.264;6.154;2023-11-21T01:06:34;6.90;99.90
47022;DHT22;32779;52.264;6.154;2023-11-21T01:09:00;6.90;99.90
47022;DHT22;32779;52.264;6.154;2023-11-21T01:11:26;6.90;99.90
47022;DHT22;32779;52.264;6.154;2023-11-21T01:13:52;6.90;99.90
47022;DHT22;32779;52.264;6.154;2023-11-21T01:16:18;6.90;99.90
47022;DHT22;32779;52.264;6.154;2023-11-21T01:19:09;7.00;99.90
47022;DHT22;32779;52.264;6.154;2023-11-21T01:21:34;7.00;99.90
47022;DHT22;32779;52.264;6.154;2023-11-21T01:24:00;7.10;99.90
47022;DHT22;32779;52.264;6.154;2023-11-21T01:26:26;7.10;99.90
47022;DHT22;32779;52.264;6.154;2023-11-21T01:28:51;7.10;99.90
47022;DHT22;32779;52.264;6.154;2023-11-21T01:31:17;7.10;99.90
47022;DHT22;32779;52.264;6.154;2023-11-21T01:33:43;7.10;99.90
47022;DHT22;32779;52.264;6.154;2023-11-21T01:36:09;7.10;99.90
47022;DHT22;32779;52.264;6.154;2023-11-21T01:38:35;7.10;99.90
47022;DHT22;32779;52.264;6.154;2023-11-21T01:41:01;7.10;99.90
47022;DHT22;32779;52.264;6.154;2023-11-21T01:43:27;7.10;99.90
47022;DHT22;32779;52.264;6.154;2023-11-21T01:45:54;7.10;99.90
47022;DHT22;32779;52.264;6.154;2023-11-21T01:48:23;7.20;99.90
47022;DHT22;32779;52.264;6.154;2023-11-21T01:50:49;7.20;99.90
47022;DHT22;32779;52.264;6.154;2023-11-21T01:53:14;7.20;99.90
47022;DHT22;32779;52.264;6.154;2023-11-21T01:55:41;7.20;99.90
47022;DHT22;32779;52.264;6.154;2023-11-21T01:58:09;7.20;99.90
47022;DHT22;32779;52.264;6.154;2023-11-21T02:00:35;7.20;99.90
47022;DHT22;32779;52.264;6.154;2023-11-21T02:03:03;7.20;99.90
47022;DHT22;32779;52.264;6.154;2023-11-21T02:05:29;7.20;99.90
47022;DHT22;32779;52.264;6.154;2023-11-21T02:07:55;7.30;99.90
47022;DHT22;32779;52.264;6.154;2023-11-21T02:10:22;7.30;99.90
47022;DHT22;32779;52.264;6.154;2023-11-21T02:12:51;7.30;99.90
47022;DHT22;32779;52.264;6.154;2023-11-21T02:15:18;7.30;99.90
47022;DHT22;32779;52.264;6.154;2023-11-21T02:17:46;7.30;99.90
47022;DHT22;32779;52.264;6.154;2023-11-21T02:20:13;7.30;99.90
47022;DHT22;32779;52.264;6.154;2023-11-21T02:22:43;7.30;99.90
47022;DHT22;32779;52.264;6.154;2023-11-21T02:25:10;7.30;99.90
47022;DHT22;32779;52.264;6.154;2023-11-21T02:27:36;7.30;99.90
47022;DHT22;32779;52.264;6.154;2023-11-21T02:30:03;7.30;99.90
47022;DHT22;32779;52.264;6.154;2023-11-21T02:32:30;7.30;99.90
47022;DHT22;32779;52.264;6.154;2023-11-21T02:34:57;7.30;99.90
47022;DHT22;32779;52.264;6.154;2023-11-21T02:37:26;7.30;99.90
47022;DHT22;32779;52.264;6.154;2023-11-21T02:39:52;7.30;99.90
47022;DHT22;32779;52.264;6.154;2023-11-21T02:42:18;7.40;99.90
47022;DHT22;32779;52.264;6.154;2023-11-21T02:44:44;7.40;99.90
47022;DHT22;32779;52.264;6.154;2023-11-21T02:47:10;7.40;99.90
47022;DHT22;32779;52.264;6.154;2023-11-21T02:49:35;7.40;99.90
47022;DHT22;32779;52.264;6.154;2023-11-21T02:52:01;7.40;99.90
47022;DHT22;32779;52.264;6.154;2023-11-21T02:54:27;7.40;99.90
47022;DHT22;32779;52.264;6.154;2023-11-21T02:56:53;7.50;99.90
47022;DHT22;32779;52.264;6.154;2023-11-21T02:59:18;7.50;99.90
47022;DHT22;32779;52.264;6.154;2023-11-21T03:01:45;7.50;99.90
47022;DHT22;32779;52.264;6.154;2023-11-21T03:04:10;7.50;99.90
47022;DHT22;32779;52.264;6.154;2023-11-21T03:06:36;7.60;99.90
47022;DHT22;32779;52.264;6.154;2023-11-21T03:09:02;7.60;99.90
47022;DHT22;32779;52.264;6.154;2023-11-21T03:11:27;7.60;99.90
47022;DHT22;32779;52.264;6.154;2023-11-21T03:13:53;7.60;99.90
47022;DHT22;32779;52.264;6.154;2023-11-21T03:16:19;7.60;99.90
47022;DHT22;32779;52.264;6.154;2023-11-21T03:18:44;7.60;99.90
47022;DHT22;32779;52.264;6.154;2023-11-21T03:21:10;7.60;99.90
47022;DHT22;32779;52.264;6.154;2023-11-21T03:23:36;7.60;99.90
47022;DHT22;32779;52.264;6.154;2023-11-21T03:26:02;7.60;99.90
47022;DHT22;32779;52.264;6.154;2023-11-21T03:28:28;7.60;99.90
47022;DHT22;32779;52.264;6.154;2023-11-21T03:30:55;7.60;99.90
47022;DHT22;32779;52.264;6.154;2023-11-21T03:33:21;7.60;99.90
47022;DHT22;32779;52.264;6.154;2023-11-21T03:35:48;7.70;99.90
47022;DHT22;32779;52.264;6.154;2023-11-21T03:38:14;7.70;99.90
47022;DHT22;32779;52.264;6.154;2023-11-21T03:40:41;7.70;99.90
47022;DHT22;32779;52.264;6.154;2023-11-21T03:43:07;7.70;99.90
47022;DHT22;32779;52.264;6.154;2023-11-21T03:45:33;7.70;99.90
47022;DHT22;32779;52.264;6.154;2023-11-21T03:47:58;7.70;99.90
47022;DHT22;32779;52.264;6.154;2023-11-21T03:50:30;7.70;99.90
47022;DHT22;32779;52.264;6.154;2023-11-21T03:52:55;7.80;99.90
47022;DHT22;32779;52.264;6.154;2023-11-21T03:55:21;7.80;99.90
47022;DHT22;32779;52.264;6.154;2023-11-21T03:57:48;7.80;99.90
47022;DHT22;32779;52.264;6.154;2023-11-21T04:00:15;7.80;99.90
47022;DHT22;32779;52.264;6.154;2023-11-21T04:02:41;7.80;99.90
47022;DHT22;32779;52.264;6.154;2023-11-21T04:05:07;7.80;99.90
47022;DHT22;32779;52.264;6.154;2023-11-21T04:07:32;7.80;99.90
47022;DHT22;32779;52.264;6.154;2023-11-21T04:09:59;7.90;99.90
47022;DHT22;32779;52.264;6.154;2023-11-21T04:12:25;7.90;99.90
47022;DHT22;32779;52.264;6.154;2023-11-21T04:14:51;7.90;99.90
47022;DHT22;32779;52.264;6.154;2023-11-21T04:17:19;7.90;99.90
47022;DHT22;32779;52.264;6.154;2023-11-21T04:19:46;8.00;99.90
47022;DHT22;32779;52.264;6.154;2023-11-21T04:22:11;8.00;99.90
47022;DHT22;32779;52.264;6.154;2023-11-21T04:24:37;8.00;99.90
47022;DHT22;32779;52.264;6.154;2023-11-21T04:27:03;8.00;99.90
47022;DHT22;32779;52.264;6.154;2023-11-21T04:29:29;8.00;99.90
47022;DHT22;32779;52.264;6.154;2023-11-21T04:31:55;8.10;99.90
47022;DHT22;32779;52.264;6.154;2023-11-21T04:34:21;8.10;99.90
47022;DHT22;32779;52.264;6.154;2023-11-21T04:36:46;8.10;99.90
47022;DHT22;32779;52.264;6.154;2023-11-21T04:39:12;8.10;99.90
47022;DHT22;32779;52.264;6.154;2023-11-21T04:41:39;8.10;99.90
47022;DHT22;32779;52.264;6.154;2023-11-21T04:44:07;8.10;99.90
47022;DHT22;32779;52.264;6.154;2023-11-21T04:46:33;8.20;99.90
47022;DHT22;32779;52.264;6.154;2023-11-21T04:48:59;8.20;99.90
47022;DHT22;32779;52.264;6.154;2023-11-21T04:51:25;8.20;99.90
47022;DHT22;32779;52.264;6.154;2023-11-21T04:53:53;8.20;99.90
47022;DHT22;32779;52.264;6.154;2023-11-21T04:56:20;8.20;99.90
47022;DHT22;32779;52.264;6.154;2023-11-21T04:58:46;8.20;99.90
47022;DHT22;32779;52.264;6.154;2023-11-21T05:01:11;8.20;99.90
47022;DHT22;32779;52.264;6.154;2023-11-21T05:03:40;8.10;99.90
47022;DHT22;32779;52.264;6.154;2023-11-21T05:06:09;8.20;99.90
47022;DHT22;32779;52.264;6.154;2023-11-21T05:08:35;8.20;99.90
47022;DHT22;32779;52.264;6.154;2023-11-21T05:11:02;8.20;99.90
47022;DHT22;32779;52.264;6.154;2023-11-21T05:13:28;8.20;99.90
47022;DHT22;32779;52.264;6.154;2023-11-21T05:16:02;8.20;99.90
47022;DHT22;32779;52.264;6.154;2023-11-21T05:18:29;8.20;99.90
47022;DHT22;32779;52.264;6.154;2023-11-21T05:20:56;8.20;99.90
47022;DHT22;32779;52.264;6.154;2023-11-21T05:23:21;8.20;99.90
47022;DHT22;32779;52.264;6.154;2023-11-21T05:25:47;8.20;99.90
47022;DHT22;32779;52.264;6.154;2023-11-21T05:28:13;8.30;99.90
47022;DHT22;32779;52.264;6.154;2023-11-21T05:30:39;8.30;99.90
47022;DHT22;32779;52.264;6.154;2023-11-21T05:33:05;8.20;99.90
47022;DHT22;32779;52.264;6.154;2023-11-21T05:35:31;8.20;99.90
47022;DHT22;32779;52.264;6.154;2023-11-21T05:37:57;8.20;99.90
47022;DHT22;32779;52.264;6.154;2023-11-21T05:40:22;8.20;99.90
47022;DHT22;32779;52.264;6.154;2023-11-21T05:42:48;8.30;99.90
47022;DHT22;32779;52.264;6.154;2023-11-21T05:45:14;8.30;99.90
47022;DHT22;32779;52.264;6.154;2023-11-21T05:47:45;8.30;99.90
47022;DHT22;32779;52.264;6.154;2023-11-21T05:50:15;8.30;99.90
47022;DHT22;32779;52.264;6.154;2023-11-21T05:52:45;8.30;99.90
47022;DHT22;32779;52.264;6.154;2023-11-21T05:55:11;8.40;99.90
47022;DHT22;32779;52.264;6.154;2023-11-21T05:57:39;8.40;99.90
47022;DHT22;32779;52.264;6.154;2023-11-21T06:00:06;8.40;99.90
47022;DHT22;32779;52.264;6.154;2023-11-21T06:02:49;8.40;99.90
47022;DHT22;32779;52.264;6.154;2023-11-21T06:05:24;8.40;99.90
47022;DHT22;32779;52.264;6.154;2023-11-21T06:07:51;8.40;99.90
47022;DHT22;32779;52.264;6.154;2023-11-21T06:10:20;8.40;99.90
47022;DHT22;32779;52.264;6.154;2023-11-21T06:12:46;8.50;99.90
47022;DHT22;32779;52.264;6.154;2023-11-21T06:15:12;8.50;99.90
47022;DHT22;32779;52.264;6.154;2023-11-21T06:17:40;8.50;99.90
47022;DHT22;32779;52.264;6.154;2023-11-21T06:20:07;8.50;99.90
47022;DHT22;32779;52.264;6.154;2023-11-21T06:22:41;8.50;99.90
47022;DHT22;32779;52.264;6.154;2023-11-21T06:25:07;8.50;99.90
47022;DHT22;32779;52.264;6.154;2023-11-21T06:27:36;8.50;99.90
47022;DHT22;32779;52.264;6.154;2023-11-21T06:30:02;8.50;99.90
47022;DHT22;32779;52.264;6.154;2023-11-21T06:32:29;8.50;99.90
47022;DHT22;32779;52.264;6.154;2023-11-21T06:34:56;8.60;99.90
47022;DHT22;32779;52.264;6.154;2023-11-21T06:37:21;8.60;99.90
47022;DHT22;32779;52.264;6.154;2023-11-21T06:39:49;8.60;99.90
47022;DHT22;32779;52.264;6.154;2023-11-21T06:42:17;8.60;99.90
47022;DHT22;32779;52.264;6.154;2023-11-21T06:44:45;8.60;99.90
47022;DHT22;32779;52.264;6.154;2023-11-21T06:47:11;8.60;99.90
47022;DHT22;32779;52.264;6.154;2023-11-21T06:49:36;8.60;99.90
47022;DHT22;32779;52.264;6.154;2023-11-21T06:52:04;8.60;99.90
47022;DHT22;32779;52.264;6.154;2023-11-21T06:54:33;8.70;99.90
47022;DHT22;32779;52.264;6.154;2023-11-21T06:56:59;8.70;99.90
47022;DHT22;32779;52.264;6.154;2023-11-21T06:59:25;8.70;99.90
47022;DHT22;32779;52.264;6.154;2023-11-21T07:01:51;8.70;99.90
47022;DHT22;32779;52.264;6.154;2023-11-21T07:04:17;8.70;99.90
47022;DHT22;32779;52.264;6.154;2023-11-21T07:06:44;8.70;99.90
47022;DHT22;32779;52.264;6.154;2023-11-21T07:09:09;8.80;99.90
47022;DHT22;32779;52.264;6.154;2023-11-21T07:11:37;8.80;99.90
47022;DHT22;32779;52.264;6.154;2023-11-21T07:14:04;8.80;99.90
47022;DHT22;32779;52.264;6.154;2023-11-21T07:16:34;8.80;99.90
47022;DHT22;32779;52.264;6.154;2023-11-21T07:19:06;8.80;99.90
47022;DHT22;32779;52.264;6.154;2023-11-21T07:21:32;8.80;99.90
47022;DHT22;32779;52.264;6.154;2023-11-21T07:24:02;8.90;99.90
47022;DHT22;32779;52.264;6.154;2023-11-21T07:26:29;8.80;99.90
47022;DHT22;32779;52.264;6.154;2023-11-21T07:28:55;8.80;99.90
47022;DHT22;32779;52.264;6.154;2023-11-21T07:31:22;8.90;99.90
47022;DHT22;32779;52.264;6.154;2023-11-21T07:33:48;8.80;99.90
47022;DHT22;32779;52.264;6.154;2023-11-21T07:36:14;8.90;99.90
47022;DHT22;32779;52.264;6.154;2023-11-21T07:38:40;8.90;99.90
47022;DHT22;32779;52.264;6.154;2023-11-21T07:41:06;8.90;99.90
47022;DHT22;32779;52.264;6.154;2023-11-21T07:43:34;8.90;99.90
47022;DHT22;32779;52.264;6.154;2023-11-21T07:46:04;8.90;99.90
47022;DHT22;32779;52.264;6.154;2023-11-21T07:48:34;8.90;99.90
47022;DHT22;32779;52.264;6.154;2023-11-21T07:51:02;8.90;99.90
47022;DHT22;32779;52.264;6.154;2023-11-21T07:53:34;8.80;99.90
47022;DHT22;32779;52.264;6.154;2023-11-21T07:56:07;8.90;99.90
47022;DHT22;32779;52.264;6.154;2023-11-21T07:58:33;8.90;99.90
47022;DHT22;32779;52.264;6.154;2023-11-21T08:01:00;8.90;99.90
47022;DHT22;32779;52.264;6.154;2023-11-21T08:03:25;8.80;99.90
47022;DHT22;32779;52.264;6.154;2023-11-21T08:05:58;8.80;99.90
47022;DHT22;32779;52.264;6.154;2023-11-21T08:08:25;8.80;99.90
47022;DHT22;32779;52.264;6.154;2023-11-21T08:10:51;8.80;99.90
47022;DHT22;32779;52.264;6.154;2023-11-21T08:13:28;8.80;99.90
47022;DHT22;32779;52.264;6.154;2023-11-21T08:15:57;8.80;99.90
47022;DHT22;32779;52.264;6.154;2023-11-21T08:18:27;8.80;99.90
47022;DHT22;32779;52.264;6.154;2023-11-21T08:20:54;8.80;99.90
47022;DHT22;32779;52.264;6.154;2023-11-21T08:23:20;8.80;99.90
47022;DHT22;32779;52.264;6.154;2023-11-21T08:25:46;8.80;99.90
47022;DHT22;32779;52.264;6.154;2023-11-21T08:28:12;8.90;99.90
47022;DHT22;32779;52.264;6.154;2023-11-21T08:30:40;8.90;99.90
47022;DHT22;32779;52.264;6.154;2023-11-21T08:33:07;8.90;99.90
47022;DHT22;32779;52.264;6.154;2023-11-21T08:35:33;8.90;99.90
47022;DHT22;32779;52.264;6.154;2023-11-21T08:37:59;9.00;99.90
47022;DHT22;32779;52.264;6.154;2023-11-21T08:40:25;9.00;99.90
47022;DHT22;32779;52.264;6.154;2023-11-21T08:42:51;9.00;99.90
47022;DHT22;32779;52.264;6.154;2023-11-21T08:45:21;9.10;99.90
47022;DHT22;32779;52.264;6.154;2023-11-21T08:47:47;9.20;99.90
47022;DHT22;32779;52.264;6.154;2023-11-21T08:50:13;9.20;99.90
47022;DHT22;32779;52.264;6.154;2023-11-21T08:52:40;9.20;99.90
47022;DHT22;32779;52.264;6.154;2023-11-21T08:55:06;9.20;99.90
47022;DHT22;32779;52.264;6.154;2023-11-21T08:57:38;9.30;99.90
47022;DHT22;32779;52.264;6.154;2023-11-21T09:00:05;9.30;99.90
47022;DHT22;32779;52.264;6.154;2023-11-21T09:02:39;9.30;99.90
47022;DHT22;32779;52.264;6.154;2023-11-21T09:05:08;9.40;99.90
47022;DHT22;32779;52.264;6.154;2023-11-21T09:07:35;9.40;99.90
47022;DHT22;32779;52.264;6.154;2023-11-21T09:10:02;9.40;99.90
47022;DHT22;32779;52.264;6.154;2023-11-21T09:12:28;9.50;99.90
47022;DHT22;32779;52.264;6.154;2023-11-21T09:14:54;9.50;99.90
47022;DHT22;32779;52.264;6.154;2023-11-21T09:17:20;9.50;99.90
47022;DHT22;32779;52.264;6.154;2023-11-21T09:19:46;9.50;99.90
47022;DHT22;32779;52.264;6.154;2023-11-21T09:22:17;9.60;99.90
47022;DHT22;32779;52.264;6.154;2023-11-21T09:24:43;9.60;99.90
47022;DHT22;32779;52.264;6.154;2023-11-21T09:27:09;9.60;99.90
47022;DHT22;32779;52.264;6.154;2023-11-21T09:29:35;9.70;99.90
47022;DHT22;32779;52.264;6.154;2023-11-21T09:32:05;9.70;99.90
47022;DHT22;32779;52.264;6.154;2023-11-21T09:34:33;9.80;99.90
47022;DHT22;32779;52.264;6.154;2023-11-21T09:36:58;9.90;99.90
47022;DHT22;32779;52.264;6.154;2023-11-21T09:39:24;9.80;99.90
47022;DHT22;32779;52.264;6.154;2023-11-21T09:41:52;9.90;99.90
47022;DHT22;32779;52.264;6.154;2023-11-21T09:44:57;10.00;99.90
47022;DHT22;32779;52.264;6.154;2023-11-21T09:47:24;10.00;99.90
47022;DHT22;32779;52.264;6.154;2023-11-21T09:49:52;10.10;99.90
47022;DHT22;32779;52.264;6.154;2023-11-21T09:52:25;10.10;99.90
47022;DHT22;32779;52.264;6.154;2023-11-21T09:54:52;10.00;99.90
47022;DHT22;32779;52.264;6.154;2023-11-21T09:57:26;10.10;99.90
47022;DHT22;32779;52.264;6.154;2023-11-21T09:59:53;10.00;99.90
47022;DHT22;32779;52.264;6.154;2023-11-21T10:02:28;10.00;99.90
47022;DHT22;32779;52.264;6.154;2023-11-21T10:04:55;10.00;99.90
47022;DHT22;32779;52.264;6.154;2023-11-21T10:07:21;10.00;99.90
47022;DHT22;32779;52.264;6.154;2023-11-21T10:09:48;10.00;99.90
47022;DHT22;32779;52.264;6.154;2023-11-21T10:12:15;10.00;99.90
47022;DHT22;32779;52.264;6.154;2023-11-21T10:14:42;10.00;99.90
47022;DHT22;32779;52.264;6.154;2023-11-21T10:17:10;9.90;99.90
47022;DHT22;32779;52.264;6.154;2023-11-21T10:19:39;9.90;99.90
47022;DHT22;32779;52.264;6.154;2023-11-21T10:22:05;9.90;99.90
47022;DHT22;32779;52.264;6.154;2023-11-21T10:24:32;9.90;99.90
47022;DHT22;32779;52.264;6.154;2023-11-21T10:26:58;9.90;99.90
47022;DHT22;32779;52.264;6.154;2023-11-21T10:29:28;9.80;99.90
47022;DHT22;32779;52.264;6.154;2023-11-21T10:31:54;9.80;99.90
47022;DHT22;32779;52.264;6.154;2023-11-21T10:34:23;9.80;99.90
47022;DHT22;32779;52.264;6.154;2023-11-21T10:36:48;9.80;99.90
47022;DHT22;32779;52.264;6.154;2023-11-21T10:39:18;9.70;99.90
47022;DHT22;32779;52.264;6.154;2023-11-21T10:41:48;9.70;99.90
47022;DHT22;32779;52.264;6.154;2023-11-21T10:44:15;9.80;99.90
47022;DHT22;32779;52.264;6.154;2023-11-21T10:46:50;9.70;99.90
47022;DHT22;32779;52.264;6.154;2023-11-21T10:49:17;9.70;99.90
47022;DHT22;32779;52.264;6.154;2023-11-21T10:51:44;9.70;99.90
47022;DHT22;32779;52.264;6.154;2023-11-21T10:54:09;9.80;99.90
47022;DHT22;32779;52.264;6.154;2023-11-21T10:56:36;9.80;99.90
47022;DHT22;32779;52.264;6.154;2023-11-21T10:59:09;9.80;99.90
47022;DHT22;32779;52.264;6.154;2023-11-21T11:01:36;9.80;99.90
47022;DHT22;32779;52.264;6.154;2023-11-21T11:04:05;9.80;99.90
47022;DHT22;32779;52.264;6.154;2023-11-21T11:06:41;9.80;99.90
47022;DHT22;32779;52.264;6.154;2023-11-21T11:09:07;9.80;99.90
47022;DHT22;32779;52.264;6.154;2023-11-21T11:11:34;9.80;99.90
47022;DHT22;32779;52.264;6.154;2023-11-21T11:14:01;9.80;99.90
47022;DHT22;32779;52.264;6.154;2023-11-21T11:16:28;9.90;99.90
47022;DHT22;32779;52.264;6.154;2023-11-21T11:18:54;9.90;99.90
47022;DHT22;32779;52.264;6.154;2023-11-21T11:21:56;9.90;99.90
47022;DHT22;32779;52.264;6.154;2023-11-21T11:24:54;10.00;99.90
47022;DHT22;32779;52.264;6.154;2023-11-21T11:36:18;10.00;99.90
47022;DHT22;32779;52.264;6.154;2023-11-21T11:38:47;10.00;99.90
47022;DHT22;32779;52.264;6.154;2023-11-21T11:41:24;10.00;99.90
47022;DHT22;32779;52.264;6.154;2023-11-21T11:43:51;10.00;99.90
47022;DHT22;32779;52.264;6.154;2023-11-21T11:46:16;10.00;99.90
47022;DHT22;32779;52.264;6.154;2023-11-21T11:48:42;10.00;99.90
47022;DHT22;32779;52.264;6.154;2023-11-21T11:51:11;10.10;99.90
47022;DHT22;32779;52.264;6.154;2023-11-21T11:53:41;10.00;99.90
47022;DHT22;32779;52.264;6.154;2023-11-21T11:56:20;10.00;99.90
47022;DHT22;32779;52.264;6.154;2023-11-21T11:58:51;10.10;99.90
47022;DHT22;32779;52.264;6.154;2023-11-21T12:01:20;10.10;99.90
47022;DHT22;32779;52.264;6.154;2023-11-21T12:06:41;10.20;99.90
47022;DHT22;32779;52.264;6.154;2023-11-21T12:09:22;10.20;99.90
47022;DHT22;32779;52.264;6.154;2023-11-21T12:11:51;10.20;99.90
47022;DHT22;32779;52.264;6.154;2023-11-21T12:14:17;10.30;99.90
47022;DHT22;32779;52.264;6.154;2023-11-21T12:16:43;10.20;99.90
47022;DHT22;32779;52.264;6.154;2023-11-21T12:19:12;10.20;99.90
47022;DHT22;32779;52.264;6.154;2023-11-21T12:21:38;10.20;99.90
47022;DHT22;32779;52.264;6.154;2023-11-21T12:24:06;10.20;99.90
47022;DHT22;32779;52.264;6.154;2023-11-21T12:26:35;10.20;99.90
47022;DHT22;32779;52.264;6.154;2023-11-21T12:29:02;10.10;99.90
47022;DHT22;32779;52.264;6.154;2023-11-21T12:31:33;10.10;99.90
47022;DHT22;32779;52.264;6.154;2023-11-21T12:34:00;10.00;99.90
47022;DHT22;32779;52.264;6.154;2023-11-21T12:36:26;9.90;99.90
47022;DHT22;32779;52.264;6.154;2023-11-21T12:38:52;9.90;99.90
47022;DHT22;32779;52.264;6.154;2023-11-21T12:41:17;9.80;99.90
47022;DHT22;32779;52.264;6.154;2023-11-21T12:43:43;9.70;99.90
47022;DHT22;32779;52.264;6.154;2023-11-21T12:46:11;9.60;99.90
47022;DHT22;32779;52.264;6.154;2023-11-21T12:48:37;9.60;99.90
47022;DHT22;32779;52.264;6.154;2023-11-21T12:51:06;9.60;99.90
47022;DHT22;32779;52.264;6.154;2023-11-21T12:53:32;9.60;99.90
47022;DHT22;32779;52.264;6.154;2023-11-21T12:56:05;9.60;99.90
47022;DHT22;32779;52.264;6.154;2023-11-21T12:58:31;9.50;99.90
47022;DHT22;32779;52.264;6.154;2023-11-21T13:00:59;9.60;99.90
47022;DHT22;32779;52.264;6.154;2023-11-21T13:03:25;9.60;99.90
47022;DHT22;32779;52.264;6.154;2023-11-21T13:05:53;9.50;99.90
47022;DHT22;32779;52.264;6.154;2023-11-21T13:08:21;9.50;99.90
47022;DHT22;32779;52.264;6.154;2023-11-21T13:10:52;9.40;99.90
47022;DHT22;32779;52.264;6.154;2023-11-21T13:13:20;9.40;99.90
47022;DHT22;32779;52.264;6.154;2023-11-21T13:15:54;9.30;99.90
47022;DHT22;32779;52.264;6.154;2023-11-21T13:18:22;9.40;99.90
47022;DHT22;32779;52.264;6.154;2023-11-21T13:20:49;9.30;99.90
47022;DHT22;32779;52.264;6.154;2023-11-21T13:23:15;9.40;99.90
47022;DHT22;32779;52.264;6.154;2023-11-21T13:25:44;9.40;99.90
47022;DHT22;32779;52.264;6.154;2023-11-21T13:28:11;9.40;99.90
47022;DHT22;32779;52.264;6.154;2023-11-21T13:30:37;9.50;99.90
47022;DHT22;32779;52.264;6.154;2023-11-21T13:33:03;9.40;99.90
47022;DHT22;32779;52.264;6.154;2023-11-21T13:35:34;9.40;99.90
47022;DHT22;32779;52.264;6.154;2023-11-21T13:38:14;9.40;99.90
47022;DHT22;32779;52.264;6.154;2023-11-21T13:40:48;9.50;99.90
47022;DHT22;32779;52.264;6.154;2023-11-21T13:43:16;9.40;99.90
47022;DHT22;32779;52.264;6.154;2023-11-21T13:45:44;9.50;99.90
47022;DHT22;32779;52.264;6.154;2023-11-21T13:48:11;9.50;99.90
47022;DHT22;32779;52.264;6.154;2023-11-21T13:50:43;9.50;99.90
47022;DHT22;32779;52.264;6.154;2023-11-21T13:53:26;9.50;99.90
47022;DHT22;32779;52.264;6.154;2023-11-21T13:55:53;9.40;99.90
47022;DHT22;32779;52.264;6.154;2023-11-21T13:58:20;9.30;99.90
47022;DHT22;32779;52.264;6.154;2023-11-21T14:01:05;9.20;99.90
47022;DHT22;32779;52.264;6.154;2023-11-21T14:03:38;9.20;99.90
47022;DHT22;32779;52.264;6.154;2023-11-21T14:06:15;9.10;99.90
47022;DHT22;32779;52.264;6.154;2023-11-21T14:08:47;9.00;99.90
47022;DHT22;32779;52.264;6.154;2023-11-21T14:11:12;9.00;99.90
47022;DHT22;32779;52.264;6.154;2023-11-21T14:13:43;8.90;99.90
47022;DHT22;32779;52.264;6.154;2023-11-21T14:16:12;8.90;99.90
47022;DHT22;32779;52.264;6.154;2023-11-21T14:18:39;8.80;99.90
47022;DHT22;32779;52.264;6.154;2023-11-21T14:21:18;8.70;99.90
47022;DHT22;32779;52.264;6.154;2023-11-21T14:23:43;8.80;99.90
47022;DHT22;32779;52.264;6.154;2023-11-21T14:26:11;8.70;99.90
47022;DHT22;32779;52.264;6.154;2023-11-21T14:28:40;8.60;99.90
47022;DHT22;32779;52.264;6.154;2023-11-21T14:31:07;8.60;99.90
47022;DHT22;32779;52.264;6.154;2023-11-21T14:33:33;8.60;99.90
47022;DHT22;32779;52.264;6.154;2023-11-21T14:35:59;8.60;99.90
47022;DHT22;32779;52.264;6.154;2023-11-21T14:38:24;8.60;99.90
47022;DHT22;32779;52.264;6.154;2023-11-21T14:40:50;8.50;99.90
47022;DHT22;32779;52.264;6.154;2023-11-21T14:43:16;8.50;99.90
47022;DHT22;32779;52.264;6.154;2023-11-21T14:45:42;8.50;99.90
47022;DHT22;32779;52.264;6.154;2023-11-21T14:48:08;8.40;99.90
47022;DHT22;32779;52.264;6.154;2023-11-21T14:50:42;8.40;99.90
47022;DHT22;32779;52.264;6.154;2023-11-21T14:53:09;8.40;99.90
47022;DHT22;32779;52.264;6.154;2023-11-21T14:55:35;8.40;99.90
47022;DHT22;32779;52.264;6.154;2023-11-21T14:58:22;8.40;99.90
47022;DHT22;32779;52.264;6.154;2023-11-21T15:00:57;8.30;99.90
47022;DHT22;32779;52.264;6.154;2023-11-21T15:03:27;8.30;99.90
47022;DHT22;32779;52.264;6.154;2023-11-21T15:05:59;8.30;99.90
47022;DHT22;32779;52.264;6.154;2023-11-21T15:08:43;8.30;99.90
47022;DHT22;32779;52.264;6.154;2023-11-21T15:11:09;8.30;99.90
47022;DHT22;32779;52.264;6.154;2023-11-21T15:13:40;8.30;99.90
47022;DHT22;32779;52.264;6.154;2023-11-21T15:16:08;8.30;99.90
47022;DHT22;32779;52.264;6.154;2023-11-21T15:18:37;8.30;99.90
47022;DHT22;32779;52.264;6.154;2023-11-21T15:21:04;8.20;99.90
47022;DHT22;32779;52.264;6.154;2023-11-21T15:23:30;8.20;99.90
47022;DHT22;32779;52.264;6.154;2023-11-21T15:26:00;8.20;99.90
47022;DHT22;32779;52.264;6.154;2023-11-21T15:28:27;8.20;99.90
47022;DHT22;32779;52.264;6.154;2023-11-21T15:30:54;8.20;99.90
47022;DHT22;32779;52.264;6.154;2023-11-21T15:33:19;8.20;99.90
47022;DHT22;32779;52.264;6.154;2023-11-21T15:35:45;8.20;99.90
47022;DHT22;32779;52.264;6.154;2023-11-21T15:38:11;8.20;99.90
47022;DHT22;32779;52.264;6.154;2023-11-21T15:40:37;8.20;99.90
47022;DHT22;32779;52.264;6.154;2023-11-21T15:43:02;8.20;99.90
47022;DHT22;32779;52.264;6.154;2023-11-21T15:45:29;8.20;99.90
47022;DHT22;32779;52.264;6.154;2023-11-21T15:47:54;8.10;99.90
47022;DHT22;32779;52.264;6.154;2023-11-21T15:50:22;8.10;99.90
47022;DHT22;32779;52.264;6.154;2023-11-21T15:52:48;8.10;99.90
47022;DHT22;32779;52.264;6.154;2023-11-21T15:55:13;8.10;99.90
47022;DHT22;32779;52.264;6.154;2023-11-21T15:57:39;8.00;99.90
47022;DHT22;32779;52.264;6.154;2023-11-21T16:00:05;8.00;99.90